Time,TemperatureF,DewpointF,PressureIn,WindDirection,WindDirectionDegrees,WindSpeedMPH,WindSpeedGustMPH,Humidity,HourlyPrecipIn,Conditions,Clouds,dailyrainin,SoftwareType,DateUTC
2013-05-10 01:06:00,49.0,43.0,29.56,West,271,8.0,12.0,81,0.00,,,0.00,weatherlink.com 1.10,2013-05-10 00:06:00,
2013-05-10 01:12:00,48.7,43.0,29.57,North,8,3.0,10.0,81,0.00,,,0.00,weatherlink.com 1.10,2013-05-10 00:12:00,
2013-05-10 01:28:00,48.1,43.0,29.57,West,276,4.0,9.0,82,0.00,,,0.00,weatherlink.com 1.10,2013-05-10 00:28:00,
2013-05-10 01:43:00,47.4,43.0,29.57,WSW,238,3.0,13.0,84,0.00,,,0.00,weatherlink.com 1.10,2013-05-10 00:43:00,
2013-05-10 01:58:00,47.0,42.0,29.57,North,350,3.0,8.0,84,0.00,,,0.00,weatherlink.com 1.10,2013-05-10 00:58:00,
2013-05-10 02:13:00,46.9,42.0,29.58,NNW,340,2.0,9.0,83,0.00,,,0.00,weatherlink.com 1.10,2013-05-10 01:13:00,
2013-05-10 02:28:00,47.0,42.0,29.58,WNW,288,0.0,7.0,83,0.00,,,0.00,weatherlink.com 1.10,2013-05-10 01:28:00,
2013-05-10 02:43:00,47.0,42.0,29.58,WNW,301,1.0,6.0,84,0.00,,,0.00,weatherlink.com 1.10,2013-05-10 01:43:00,
2013-05-10 02:58:00,47.2,43.0,29.58,WNW,302,0.0,4.0,85,0.00,,,0.00,weatherlink.com 1.10,2013-05-10 01:58:00,
2013-05-10 03:13:00,47.2,43.0,29.59,West,259,1.0,4.0,85,0.01,,,0.01,weatherlink.com 1.10,2013-05-10 02:13:00,
2013-05-10 03:28:00,47.2,43.0,29.59,West,278,4.0,7.0,86,0.01,,,0.01,weatherlink.com 1.10,2013-05-10 02:28:00,
2013-05-10 03:43:00,47.0,43.0,29.59,SW,230,2.0,6.0,87,0.02,,,0.02,weatherlink.com 1.10,2013-05-10 02:43:00,
2013-05-10 03:59:00,46.7,44.0,29.59,West,267,0.0,5.0,89,0.03,,,0.03,weatherlink.com 1.10,2013-05-10 02:59:00,
2013-05-10 04:13:00,46.6,44.0,29.59,WNW,285,0.0,1.0,90,0.04,,,0.05,weatherlink.com 1.10,2013-05-10 03:13:00,
2013-05-10 04:28:00,46.7,44.0,29.58,West,266,0.0,0.0,91,0.05,,,0.06,weatherlink.com 1.10,2013-05-10 03:28:00,
2013-05-10 04:43:00,47.1,45.0,29.58,WNW,283,0.0,4.0,92,0.04,,,0.06,weatherlink.com 1.10,2013-05-10 03:43:00,
2013-05-10 04:58:00,48.4,47.0,29.58,WSW,243,6.0,13.0,93,0.03,,,0.06,weatherlink.com 1.10,2013-05-10 03:58:00,
2013-05-10 05:13:00,49.1,47.0,29.58,North,6,3.0,11.0,92,0.02,,,0.06,weatherlink.com 1.10,2013-05-10 04:13:00,
2013-05-10 05:28:00,48.8,46.0,29.58,West,276,3.0,17.0,91,0.02,,,0.08,weatherlink.com 1.10,2013-05-10 04:28:00,
2013-05-10 05:43:00,48.6,46.0,29.59,SW,233,2.0,14.0,91,0.02,,,0.08,weatherlink.com 1.10,2013-05-10 04:43:00,
2013-05-10 05:58:00,48.4,46.0,29.59,North,349,2.0,16.0,90,0.02,,,0.08,weatherlink.com 1.10,2013-05-10 04:58:00,
2013-05-10 06:13:00,48.1,45.0,29.60,NNW,336,3.0,14.0,89,0.02,,,0.09,weatherlink.com 1.10,2013-05-10 05:13:00,
2013-05-10 06:28:00,47.9,45.0,29.60,WSW,243,13.0,13.0,89,0.01,,,0.09,weatherlink.com 1.10,2013-05-10 05:28:00,
2013-05-10 06:43:00,47.9,45.0,29.61,WSW,247,8.0,15.0,89,0.02,,,0.09,weatherlink.com 1.10,2013-05-10 05:43:00,
2013-05-10 06:58:00,47.9,45.0,29.61,WNW,301,5.0,18.0,89,0.02,,,0.10,weatherlink.com 1.10,2013-05-10 05:58:00,
2013-05-10 07:13:00,48.1,45.0,29.62,West,281,4.0,12.0,88,0.02,,,0.10,weatherlink.com 1.10,2013-05-10 06:13:00,
2013-05-10 07:28:00,48.2,45.0,29.62,West,266,7.0,13.0,89,0.02,,,0.10,weatherlink.com 1.10,2013-05-10 06:28:00,
2013-05-10 07:43:00,48.4,45.0,29.62,NW,314,2.0,12.0,88,0.01,,,0.10,weatherlink.com 1.10,2013-05-10 06:43:00,
2013-05-10 07:58:00,48.7,45.0,29.63,West,264,5.0,14.0,88,0.00,,,0.10,weatherlink.com 1.10,2013-05-10 06:58:00,
2013-05-10 08:13:00,49.2,46.0,29.63,WNW,299,1.0,14.0,87,0.00,,,0.10,weatherlink.com 1.10,2013-05-10 07:13:00,
2013-05-10 08:28:00,49.9,45.0,29.64,NW,323,4.0,17.0,84,0.00,,,0.10,weatherlink.com 1.10,2013-05-10 07:28:00,
2013-05-10 08:43:00,50.9,46.0,29.64,West,271,5.0,12.0,82,0.00,,,0.10,weatherlink.com 1.10,2013-05-10 07:43:00,
2013-05-10 08:58:00,51.8,46.0,29.65,SW,235,2.0,13.0,81,0.00,,,0.10,weatherlink.com 1.10,2013-05-10 07:58:00,
2013-05-10 09:13:00,52.6,46.0,29.65,West,259,8.0,16.0,79,0.00,,,0.10,weatherlink.com 1.10,2013-05-10 08:13:00,
2013-05-10 09:28:00,53.3,47.0,29.64,WNW,302,5.0,16.0,78,0.00,,,0.10,weatherlink.com 1.10,2013-05-10 08:28:00,
2013-05-10 09:43:00,53.8,47.0,29.65,West,264,2.0,12.0,78,0.00,,,0.10,weatherlink.com 1.10,2013-05-10 08:43:00,
2013-05-10 09:59:00,53.9,47.0,29.65,WSW,245,6.0,16.0,77,0.00,,,0.10,weatherlink.com 1.10,2013-05-10 08:59:00,
2013-05-10 10:14:00,54.2,47.0,29.65,NW,315,2.0,12.0,78,0.00,,,0.10,weatherlink.com 1.10,2013-05-10 09:14:00,
2013-05-10 10:29:00,55.0,48.0,29.65,NNW,331,4.0,12.0,77,0.00,,,0.10,weatherlink.com 1.10,2013-05-10 09:29:00,
2013-05-10 10:44:00,55.3,49.0,29.66,West,260,6.0,11.0,78,0.00,,,0.10,weatherlink.com 1.10,2013-05-10 09:44:00,
2013-05-10 10:59:00,55.5,49.0,29.66,SW,227,9.0,16.0,78,0.00,,,0.10,weatherlink.com 1.10,2013-05-10 09:59:00,
2013-05-10 11:14:00,55.4,49.0,29.66,WNW,293,6.0,14.0,79,0.00,,,0.10,weatherlink.com 1.10,2013-05-10 10:14:00,
2013-05-10 11:29:00,55.9,49.0,29.66,WSW,242,5.0,17.0,78,0.00,,,0.10,weatherlink.com 1.10,2013-05-10 10:29:00,
2013-05-10 11:44:00,55.0,50.0,29.66,WNW,293,6.0,14.0,83,0.00,,,0.10,weatherlink.com 1.10,2013-05-10 10:44:00,
2013-05-10 11:59:00,56.3,50.0,29.66,WNW,295,8.0,15.0,78,0.00,,,0.10,weatherlink.com 1.10,2013-05-10 10:59:00,
2013-05-10 12:14:00,58.0,49.0,29.66,WNW,294,7.0,13.0,73,0.00,,,0.10,weatherlink.com 1.10,2013-05-10 11:14:00,
2013-05-10 12:29:00,58.6,48.0,29.66,West,273,3.0,16.0,69,0.00,,,0.10,weatherlink.com 1.10,2013-05-10 11:29:00,
2013-05-10 12:44:00,55.6,48.0,29.68,WNW,284,7.0,16.0,75,0.00,,,0.10,weatherlink.com 1.10,2013-05-10 11:44:00,
2013-05-10 12:59:00,55.0,46.0,29.68,North,354,4.0,13.0,72,0.00,,,0.10,weatherlink.com 1.10,2013-05-10 11:59:00,
2013-05-10 13:14:00,54.0,44.0,29.69,West,274,5.0,16.0,70,0.00,,,0.10,weatherlink.com 1.10,2013-05-10 12:14:00,
2013-05-10 13:29:00,53.8,44.0,29.70,WSW,243,7.0,19.0,69,0.00,,,0.10,weatherlink.com 1.10,2013-05-10 12:29:00,
2013-05-10 13:44:00,54.3,43.0,29.70,West,267,4.0,19.0,66,0.00,,,0.10,weatherlink.com 1.10,2013-05-10 12:44:00,
2013-05-10 13:59:00,55.3,41.0,29.69,WSW,251,11.0,17.0,60,0.00,,,0.10,weatherlink.com 1.10,2013-05-10 12:59:00,
2013-05-10 14:14:00,55.4,42.0,29.69,West,271,2.0,16.0,62,0.00,,,0.10,weatherlink.com 1.10,2013-05-10 13:14:00,
2013-05-10 14:29:00,55.3,38.0,29.69,West,259,4.0,16.0,53,0.00,,,0.10,weatherlink.com 1.10,2013-05-10 13:29:00,
2013-05-10 14:44:00,55.8,37.0,29.69,NNW,335,3.0,20.0,50,0.00,,,0.10,weatherlink.com 1.10,2013-05-10 13:44:00,
2013-05-10 14:59:00,56.3,39.0,29.69,West,266,3.0,21.0,52,0.00,,,0.10,weatherlink.com 1.10,2013-05-10 13:59:00,
2013-05-10 15:14:00,56.6,36.0,29.68,WSW,255,10.0,18.0,47,0.00,,,0.10,weatherlink.com 1.10,2013-05-10 14:14:00,
2013-05-10 15:29:00,57.4,36.0,29.68,WSW,250,8.0,19.0,45,0.00,,,0.10,weatherlink.com 1.10,2013-05-10 14:29:00,
2013-05-10 15:44:00,57.2,36.0,29.69,NW,323,6.0,17.0,46,0.00,,,0.10,weatherlink.com 1.10,2013-05-10 14:44:00,
2013-05-10 15:59:00,57.6,33.0,29.68,North,356,3.0,15.0,40,0.00,,,0.10,weatherlink.com 1.10,2013-05-10 14:59:00,
2013-05-10 16:14:00,56.6,36.0,29.68,WSW,237,12.0,20.0,46,0.00,,,0.10,weatherlink.com 1.10,2013-05-10 15:14:00,
2013-05-10 16:29:00,56.6,36.0,29.68,West,274,7.0,19.0,47,0.00,,,0.10,weatherlink.com 1.10,2013-05-10 15:29:00,
2013-05-10 16:44:00,56.0,36.0,29.68,North,353,8.0,18.0,47,0.00,,,0.10,weatherlink.com 1.10,2013-05-10 15:44:00,
2013-05-10 16:59:00,56.2,34.0,29.68,West,281,8.0,20.0,44,0.00,,,0.10,weatherlink.com 1.10,2013-05-10 15:59:00,
2013-05-10 17:14:00,56.6,36.0,29.68,NNW,346,2.0,17.0,47,0.00,,,0.10,weatherlink.com 1.10,2013-05-10 16:14:00,
2013-05-10 17:29:00,56.6,36.0,29.67,WNW,297,5.0,16.0,47,0.00,,,0.10,weatherlink.com 1.10,2013-05-10 16:29:00,
2013-05-10 17:44:00,56.9,37.0,29.67,WNW,283,6.0,11.0,48,0.00,,,0.10,weatherlink.com 1.10,2013-05-10 16:44:00,
2013-05-10 17:59:00,57.2,36.0,29.67,SW,217,7.0,14.0,45,0.00,,,0.10,weatherlink.com 1.10,2013-05-10 16:59:00,
2013-05-10 18:14:00,56.7,34.0,29.67,West,269,3.0,17.0,42,0.00,,,0.00,weatherlink.com 1.10,2013-05-10 17:14:00,
2013-05-10 18:29:00,56.4,35.0,29.67,SW,233,7.0,19.0,45,0.00,,,0.00,weatherlink.com 1.10,2013-05-10 17:29:00,
2013-05-10 18:44:00,56.8,37.0,29.67,WNW,291,11.0,11.0,48,0.00,,,0.00,weatherlink.com 1.10,2013-05-10 17:44:00,
2013-05-10 18:59:00,55.4,36.0,29.67,WSW,247,3.0,14.0,49,0.00,,,0.00,weatherlink.com 1.10,2013-05-10 17:59:00,
2013-05-10 19:14:00,55.1,37.0,29.67,SSE,147,3.0,11.0,51,0.00,,,0.00,weatherlink.com 1.10,2013-05-10 18:14:00,
2013-05-10 19:29:00,55.0,37.0,29.67,WSW,242,1.0,9.0,52,0.00,,,0.00,weatherlink.com 1.10,2013-05-10 18:29:00,
2013-05-10 19:44:00,54.6,38.0,29.67,WSW,258,2.0,10.0,53,0.00,,,0.00,weatherlink.com 1.10,2013-05-10 18:44:00,
2013-05-10 20:00:00,53.2,38.0,29.67,WSW,249,2.0,9.0,56,0.00,,,0.00,weatherlink.com 1.10,2013-05-10 19:00:00,
2013-05-10 20:15:00,52.8,39.0,29.68,WNW,293,6.0,9.0,60,0.00,,,0.00,weatherlink.com 1.10,2013-05-10 19:15:00,
2013-05-10 20:30:00,49.3,42.0,29.69,West,263,5.0,12.0,75,0.00,,,0.00,weatherlink.com 1.10,2013-05-10 19:30:00,
2013-05-10 20:45:00,48.5,42.0,29.69,West,263,1.0,4.0,78,0.01,,,0.01,weatherlink.com 1.10,2013-05-10 19:45:00,
2013-05-10 21:00:00,48.1,42.0,29.69,West,259,2.0,4.0,78,0.01,,,0.01,weatherlink.com 1.10,2013-05-10 20:00:00,
2013-05-10 21:15:00,47.9,41.0,29.69,SW,236,1.0,3.0,77,0.01,,,0.01,weatherlink.com 1.10,2013-05-10 20:15:00,
2013-05-10 21:30:00,47.9,41.0,29.69,WSW,256,2.0,4.0,76,0.00,,,0.01,weatherlink.com 1.10,2013-05-10 20:30:00,
2013-05-10 21:45:00,47.9,41.0,29.70,North,354,0.0,5.0,76,0.00,,,0.01,weatherlink.com 1.10,2013-05-10 20:45:00,
2013-05-10 22:00:00,47.8,41.0,29.69,West,264,1.0,8.0,76,0.00,,,0.01,weatherlink.com 1.10,2013-05-10 21:00:00,
2013-05-10 22:15:00,47.7,41.0,29.69,SW,226,5.0,5.0,77,0.00,,,0.01,weatherlink.com 1.10,2013-05-10 21:15:00,
2013-05-10 22:30:00,47.6,41.0,29.70,SW,231,1.0,5.0,77,0.00,,,0.01,weatherlink.com 1.10,2013-05-10 21:30:00,
2013-05-10 22:45:00,47.5,41.0,29.70,NNE,23,0.0,5.0,77,0.00,,,0.01,weatherlink.com 1.10,2013-05-10 21:45:00,
2013-05-10 23:00:00,47.4,41.0,29.69,West,260,3.0,7.0,77,0.00,,,0.01,weatherlink.com 1.10,2013-05-10 22:00:00,
2013-05-10 23:15:00,47.2,40.0,29.69,ENE,65,2.0,4.0,77,0.00,,,0.01,weatherlink.com 1.10,2013-05-10 22:15:00,
2013-05-10 23:30:00,47.0,40.0,29.69,NW,311,1.0,8.0,78,0.00,,,0.01,weatherlink.com 1.10,2013-05-10 22:30:00,
2013-05-10 23:45:00,46.8,40.0,29.68,WNW,293,0.0,7.0,78,0.00,,,0.01,weatherlink.com 1.10,2013-05-10 22:45:00,